Portada
METAR-TAF:

METAR-TAF

Aeroports :

Osca, Espanya

latitud: 42-04-32N, longitud: 0-18-58W, altitud: 539 m

Observació

L'informe es va fer fa 18 minuts, a les 18:30 UTC
Vent calma
Temperatura 16°C
Humitat 88%
Pressió 1018 hPa
Visibilitat 10 km o més
sense núvols per sota de 1500 mi sense presència de cumulonimbus.

METAR: LEHC 191830Z AUTO 00000KT CAVOK 16/14 Q1018

Hora: 20:48 (18:48 UTC)

Pronòstic

L'informe es va fer fa 2 hores i 43 minuts, a les 16:05 UTC
Pronòstic vàlid del 19 a les 16 UTC al 20 a les 09 UTC
Vent 10 kt del Nord-Est
Visibilitat 10 km o més
Escasses núvols a una alçada de 3000 ft
Temporalment
l' 19 a les 16 UTC al 19 a les 24 UTC
Visibilitat: 4000 m
Escasses núvols a una alçada de 3000 ft, Cumulonimbus.
Cel ennuvolat a una alçada de 3400 ft
tempesta, pluja
Evolucionant progressivament
l' 19 a les 17 UTC al 19 a les 20 UTC
Vent 7 kt del Est

TAF: LEHC 191605Z 1916/2009 05010KT 9999 FEW030 TX20/1916Z TN14/2006Z TEMPO 1916/1924 4000 TSRA FEW030CB BKN034 BECMG 1917/1920 09007KT

Observacions i pronòstics meteorològics de més de 4000 aeroports (METAR i TAF).

Les estacions disponibles són els punts grocs i vermells al mapa.

Posi el ratolí al punt desitjat per veure el nom de l'estació.

Feu clic per veure les observacions i els pronòstics meteorològics.

Per canviar el mapa: feu clic els botons verds amb una creu de color negre per apropar; al botó verd amb un guió per allunyar la imatge; o en les fletxes verdes per a mapes adjacents.


METAR-TAF: